Time;durP1;ratioP1;P1;durP2;ratioP2;P2;SDS_P1;SDS_P2;PMS_P1;PMS_P2;Temp;Humidity;BMP_temperature;BMP_pressure;BME280_temperature;BME280_humidity;BME280_pressure;Samples;Min_cycle;Max_cycle;Signal;HPM_P1;HPM_P2
2021/04/20 00:04:47;;;;;;;63.57;37.40;;;;;;;4.08;73.60;98463.13;468723;1196;103201;-42
2021/04/20 00:14:51;;;;;;;64.25;37.00;;;;;;;4.01;73.73;98459.64;469011;1195;103248;-41
2021/04/20 00:24:55;;;;;;;92.57;50.50;;;;;;;3.92;73.90;98443.30;468501;1196;103242;-42
2021/04/20 00:35:00;;;;;;;120.43;67.63;;;;;;;3.76;74.10;98453.23;468747;1196;103216;-41
2021/04/20 00:45:04;;;;;;;119.20;66.10;;;;;;;3.55;73.92;98441.00;468842;1195;103530;-43
2021/04/20 00:55:08;;;;;;;113.00;61.90;;;;;;;3.32;73.91;98442.05;469318;1196;103229;-40
2021/04/20 01:05:16;;;;;;;101.03;54.37;;;;;;;3.22;74.01;98427.66;468604;1196;103341;-40
2021/04/20 01:15:20;;;;;;;94.83;53.37;;;;;;;3.21;74.20;98421.63;468771;1196;103635;-41
2021/04/20 01:25:25;;;;;;;140.53;71.70;;;;;;;2.86;74.06;98427.73;470043;1161;103517;-40
2021/04/20 01:35:30;;;;;;;147.03;75.83;;;;;;;2.81;74.78;98422.23;469186;1196;103145;-41
2021/04/20 01:45:34;;;;;;;99.63;59.20;;;;;;;2.77;74.38;98425.21;468450;1196;103232;-42
2021/04/20 01:55:38;;;;;;;99.20;51.30;;;;;;;2.73;75.00;98423.16;468293;1196;104291;-41
2021/04/20 02:05:43;;;;;;;130.37;67.67;;;;;;;2.83;74.93;98423.66;468066;1196;103229;-41
2021/04/20 02:15:47;;;;;;;144.85;71.30;;;;;;;2.62;75.12;98424.46;469229;1196;103315;-41
2021/04/20 02:25:53;;;;;;;98.43;57.03;;;;;;;2.86;75.58;98422.51;468931;1196;103248;-40
2021/04/20 02:35:57;;;;;;;106.50;56.20;;;;;;;3.13;75.38;98420.95;469173;1196;103197;-40
2021/04/20 02:46:03;;;;;;;126.20;60.60;;;;;;;3.33;75.83;98427.98;468402;1196;103542;-41
2021/04/20 02:56:08;;;;;;;134.13;68.10;;;;;;;3.46;76.08;98421.23;468450;1196;103603;-41
2021/04/20 03:06:14;;;;;;;140.40;66.53;;;;;;;3.45;76.05;98417.00;468922;1196;103287;-41
2021/04/20 03:16:18;;;;;;;120.95;60.55;;;;;;;3.37;76.28;98403.08;468636;1196;103207;-42
2021/04/20 03:36:54;;;;;;;168.30;97.10;;;;;;;3.55;76.60;98399.17;468688;1196;103150;-41
2021/04/20 03:47:00;;;;;;;245.23;130.83;;;;;;;3.48;76.35;98393.91;468945;1196;103551;-41
2021/04/20 03:57:07;;;;;;;243.87;128.93;;;;;;;3.45;76.56;98396.90;468784;1196;103589;-42
2021/04/20 04:07:15;;;;;;;233.53;113.33;;;;;;;3.40;76.74;98404.51;468231;1196;103248;-40
2021/04/20 04:17:23;;;;;;;230.07;108.67;;;;;;;3.48;76.07;98414.81;469087;1196;103210;-45
2021/04/20 04:27:29;;;;;;;204.25;100.45;;;;;;;3.72;75.95;98400.50;469444;1196;103261;-41
2021/04/20 04:37:39;;;;;;;186.63;94.73;;;;;;;4.15;76.39;98411.63;468144;1196;103204;-40
2021/04/20 04:47:43;;;;;;;198.20;107.10;;;;;;;5.03;76.60;98427.45;469139;1196;104627;-41
2021/04/20 04:57:51;;;;;;;186.30;99.90;;;;;;;6.32;76.47;98428.59;468640;1196;103283;-40
2021/04/20 05:07:58;;;;;;;148.00;88.67;;;;;;;7.62;75.83;98422.00;468531;1196;103261;-41
2021/04/20 05:18:02;;;;;;;120.47;70.97;;;;;;;8.86;75.12;98427.97;468534;1196;103223;-41
2021/04/20 05:28:07;;;;;;;76.40;48.05;;;;;;;9.72;74.73;98431.98;468265;1196;103206;-41
2021/04/20 05:38:11;;;;;;;64.13;40.70;;;;;;;9.76;73.58;98431.28;468820;1196;103271;-40
2021/04/20 05:48:16;;;;;;;69.63;43.20;;;;;;;9.08;73.33;98437.00;469055;1196;103877;-42
2021/04/20 05:58:21;;;;;;;71.77;48.30;;;;;;;8.37;73.42;98437.70;468496;1196;103673;-42
2021/04/20 06:08:26;;;;;;;80.37;49.63;;;;;;;7.90;73.63;98445.23;468975;1196;103520;-42
2021/04/20 06:18:31;;;;;;;80.97;48.40;;;;;;;7.68;73.98;98446.64;469152;1196;103599;-41
2021/04/20 06:38:54;;;;;;;;;;;;;;;9.39;74.88;98438.56;468604;1201;103206;-42
2021/04/20 07:12:57;;;;;;;55.57;36.70;;;;;;;11.60;72.93;98433.05;468343;1196;103197;-42
2021/04/20 07:23:13;;;;;;;45.80;31.50;;;;;;;12.23;73.07;98416.77;468030;1196;104505;-41
2021/04/20 07:33:24;;;;;;;38.50;24.20;;;;;;;13.62;71.83;98417.98;468289;1196;103232;-42
2021/04/20 07:43:31;;;;;;;31.20;19.90;;;;;;;14.13;70.13;98410.34;468906;1196;103520;-41
2021/04/20 07:53:39;;;;;;;17.85;11.33;;;;;;;14.45;67.74;98410.27;468896;1196;104356;-41
2021/04/20 08:03:47;;;;;;;13.35;8.58;;;;;;;14.21;63.22;98411.73;468657;1196;103511;-41
2021/04/20 08:13:52;;;;;;;14.20;10.83;;;;;;;14.06;61.83;98410.58;468750;1195;103495;-42
2021/04/20 08:24:05;;;;;;;19.63;12.27;;;;;;;14.27;59.49;98408.83;469393;1196;103219;-42
2021/04/20 08:44:50;;;;;;;15.50;9.80;;;;;;;14.14;57.81;98401.30;468655;1196;103209;-44
2021/04/20 08:55:14;;;;;;;10.80;7.80;;;;;;;14.63;55.96;98403.67;468496;1196;103209;-41
2021/04/20 09:05:20;;;;;;;14.15;8.95;;;;;;;15.07;54.92;98396.06;468525;1196;103573;-42
2021/04/20 09:15:30;;;;;;;7.33;6.17;;;;;;;14.99;55.23;98388.61;469046;1195;103785;-42
2021/04/20 09:25:39;;;;;;;8.37;6.20;;;;;;;14.43;52.74;98385.77;468721;1196;103229;-41
2021/04/20 09:35:45;;;;;;;6.70;4.37;;;;;;;15.22;50.58;98369.45;468859;1196;103549;-41
2021/04/20 09:45:56;;;;;;;4.13;3.03;;;;;;;15.02;45.07;98378.22;468663;1196;103226;-42
2021/04/20 09:56:04;;;;;;;3.60;3.13;;;;;;;15.41;45.06;98366.27;468526;1196;103264;-42
2021/04/20 10:06:19;;;;;;;3.23;2.93;;;;;;;15.49;44.46;98365.72;468930;1196;103219;-41
2021/04/20 10:16:24;;;;;;;4.67;3.07;;;;;;;15.58;44.87;98358.77;468695;1196;103253;-41
2021/04/20 10:26:28;;;;;;;6.03;4.07;;;;;;;15.52;40.99;98365.19;468176;1196;103596;-42
2021/04/20 10:36:34;;;;;;;4.30;3.70;;;;;;;15.54;43.66;98341.73;468395;1196;104767;-41
2021/04/20 10:46:41;;;;;;;3.73;3.00;;;;;;;15.76;44.60;98344.13;468676;1195;103232;-41
2021/04/20 10:56:47;;;;;;;3.90;3.10;;;;;;;15.96;43.55;98334.21;468717;1196;103634;-40
2021/04/20 11:17:31;;;;;;;3.83;3.33;;;;;;;16.05;42.27;98328.30;468343;1196;103668;-41
2021/04/20 11:27:44;;;;;;;5.23;3.83;;;;;;;15.54;43.56;98326.54;468445;1196;103227;-42
2021/04/20 11:37:49;;;;;;;;;;;;;;;15.32;44.61;98310.05;469221;1204;103219;-41
2021/04/20 11:47:54;;;;;;;5.10;4.05;;;;;;;15.03;43.63;98323.11;469132;1196;103228;-41
2021/04/20 11:58:07;;;;;;;8.07;3.63;;;;;;;14.92;43.83;98321.52;469258;1196;103258;-42
2021/04/20 12:08:14;;;;;;;4.20;3.33;;;;;;;14.71;44.56;98302.85;468817;1196;103631;-42
2021/04/20 12:18:19;;;;;;;5.17;3.40;;;;;;;14.98;44.30;98304.47;469113;1196;103155;-41
2021/04/20 12:28:25;;;;;;;5.35;3.70;;;;;;;15.56;43.59;98286.30;468876;1196;103497;-41
2021/04/20 12:38:32;;;;;;;4.23;3.13;;;;;;;15.98;43.11;98277.14;468864;1196;103245;-42
2021/04/20 12:48:38;;;;;;;4.20;3.30;;;;;;;16.18;41.12;98263.72;468676;1195;104684;-42
2021/04/20 12:58:49;;;;;;;4.85;3.50;;;;;;;15.91;40.77;98256.91;469166;1196;103223;-40
2021/04/20 13:08:55;;;;;;;5.20;3.33;;;;;;;15.19;41.32;98250.14;468992;1196;103578;-41
2021/04/20 13:19:00;;;;;;;4.15;3.30;;;;;;;15.77;42.03;98233.76;468210;1196;103203;-41
2021/04/20 13:39:35;;;;;;;4.40;3.03;;;;;;;16.35;39.39;98234.02;468566;1196;103212;-41
2021/04/20 13:49:45;;;;;;;8.00;3.23;;;;;;;16.02;40.58;98241.65;468315;1196;103392;-41
2021/04/20 13:59:52;;;;;;;3.57;3.20;;;;;;;16.22;41.96;98225.55;468438;1196;103223;-42
2021/04/20 14:09:58;;;;;;;4.83;2.87;;;;;;;16.48;39.03;98215.50;468938;1196;103260;-42
2021/04/20 14:20:03;;;;;;;4.60;3.10;;;;;;;16.58;40.05;98212.77;468902;1196;103585;-41
2021/04/20 14:30:13;;;;;;;4.20;3.40;;;;;;;16.38;41.00;98212.91;468141;1196;103216;-44
2021/04/20 14:40:19;;;;;;;4.33;2.93;;;;;;;16.09;39.34;98214.67;468145;1196;103235;-42
2021/04/20 14:50:27;;;;;;;3.70;3.40;;;;;;;15.62;40.25;98206.11;468545;1196;103506;-42
2021/04/20 15:00:31;;;;;;;5.73;4.13;;;;;;;15.39;40.92;98206.69;469009;1196;103239;-41
2021/04/20 15:10:41;;;;;;;3.27;2.60;;;;;;;15.31;40.83;98210.69;469118;1196;103213;-41
2021/04/20 15:20:49;;;;;;;11.63;6.73;;;;;;;15.10;41.14;98217.11;468230;1196;103241;-41
2021/04/20 15:30:57;;;;;;;10.10;6.10;;;;;;;14.90;42.82;98212.61;468888;1196;104633;-42
2021/04/20 15:41:02;;;;;;;8.73;7.23;;;;;;;14.30;45.80;98232.78;468590;1196;103227;-40
2021/04/20 15:51:07;;;;;;;14.53;9.97;;;;;;;13.74;47.48;98239.78;468311;1196;103552;-40
2021/04/20 16:01:12;;;;;;;12.47;8.73;;;;;;;13.34;48.78;98243.02;468839;1195;103565;-41
2021/04/20 16:11:23;;;;;;;15.90;10.10;;;;;;;13.02;50.18;98248.36;469159;1196;103213;-41
2021/04/20 16:31:56;;;;;;;21.17;13.67;;;;;;;12.70;51.04;98241.20;468351;1196;103178;-41
2021/04/20 16:42:12;;;;;;;20.83;12.10;;;;;;;12.56;51.82;98235.52;468410;1196;103255;-41
2021/04/20 16:52:20;;;;;;;21.73;11.67;;;;;;;12.45;52.12;98233.81;468438;1196;103212;-42
2021/04/20 17:02:28;;;;;;;23.57;13.10;;;;;;;12.35;52.32;98239.03;468325;1196;103297;-41
2021/04/20 17:12:35;;;;;;;24.73;13.50;;;;;;;12.23;52.89;98238.36;468363;1196;103229;-43
2021/04/20 17:23:00;;;;;;;18.97;12.90;;;;;;;12.09;53.17;98242.47;468608;1196;104397;-41
2021/04/20 17:33:06;;;;;;;23.95;13.15;;;;;;;11.90;53.65;98248.08;468466;1196;103628;-39
2021/04/20 17:43:17;;;;;;;20.60;13.33;;;;;;;11.66;53.91;98250.14;469033;1196;103568;-43
2021/04/20 17:53:24;;;;;;;24.50;14.95;;;;;;;11.39;54.32;98254.55;468422;1196;103232;-41
2021/04/20 18:13:53;;;;;;;31.20;18.20;;;;;;;10.65;55.34;98265.33;468202;1196;103219;-40
2021/04/20 18:24:07;;;;;;;47.73;26.50;;;;;;;10.28;56.16;98279.97;468826;1196;103326;-41
2021/04/20 18:34:22;;;;;;;77.40;38.80;;;;;;;9.77;56.57;98295.59;468338;1196;103211;-41
2021/04/20 18:44:28;;;;;;;126.27;61.23;;;;;;;9.44;57.15;98306.73;468717;1196;103608;-41
2021/04/20 19:05:20;;;;;;;115.90;54.57;;;;;;;9.04;58.35;98309.25;468172;1196;103229;-41
2021/04/20 19:15:33;;;;;;;107.43;53.53;;;;;;;8.84;59.13;98309.55;468206;1196;103687;-42
2021/04/20 19:25:39;;;;;;;123.10;59.30;;;;;;;8.57;59.25;98311.77;468111;1196;103248;-41
2021/04/20 19:35:47;;;;;;;126.00;60.00;;;;;;;8.32;60.05;98313.71;468478;1196;104624;-42
2021/04/20 19:45:51;;;;;;;110.40;53.50;;;;;;;8.09;60.20;98311.77;469059;1196;103216;-41
2021/04/20 19:55:58;;;;;;;104.00;52.45;;;;;;;8.00;61.09;98313.88;468957;1196;103541;-41
2021/04/20 20:06:04;;;;;;;93.10;45.20;;;;;;;7.91;61.68;98306.50;468828;1196;103538;-42
2021/04/20 20:16:10;;;;;;;105.30;50.95;;;;;;;7.79;61.99;98303.78;468850;1196;103970;-42
2021/04/20 20:26:16;;;;;;;94.73;52.33;;;;;;;7.67;62.26;98305.55;468035;1196;103584;-41
2021/04/20 20:36:20;;;;;;;84.47;45.83;;;;;;;7.64;62.91;98304.16;468662;1196;103284;-41
2021/04/20 20:46:29;;;;;;;58.53;33.50;;;;;;;7.73;63.20;98303.86;468436;1197;103572;-41
2021/04/20 20:56:36;;;;;;;54.70;30.33;;;;;;;7.83;63.51;98302.34;468916;1196;103347;-41
2021/04/20 21:06:41;;;;;;;65.65;34.75;;;;;;;7.88;63.66;98297.22;469181;1196;103587;-41
2021/04/20 21:16:45;;;;;;;71.27;39.73;;;;;;;7.83;63.96;98291.02;468484;1196;103233;-41
2021/04/20 21:26:55;;;;;;;83.20;44.43;;;;;;;7.73;64.37;98286.25;468945;1196;104643;-41
2021/04/20 21:36:59;;;;;;;109.20;51.37;;;;;;;7.53;64.63;98286.45;468788;1196;103624;-41
2021/04/20 21:47:05;;;;;;;92.90;43.50;;;;;;;7.36;64.61;98286.23;468141;1196;103283;-41
2021/04/20 21:57:14;;;;;;;61.13;36.13;;;;;;;7.20;65.00;98296.50;468783;1196;103602;-41
2021/04/20 22:07:19;;;;;;;53.70;31.67;;;;;;;7.13;65.41;98299.19;468120;1196;103271;-41
2021/04/20 22:17:23;;;;;;;72.77;37.37;;;;;;;6.97;65.80;98311.04;468160;1196;103233;-40
2021/04/20 22:27:29;;;;;;;73.87;39.13;;;;;;;6.90;65.94;98307.66;468156;1196;103219;-43
2021/04/20 22:37:35;;;;;;;71.27;39.97;;;;;;;6.80;66.44;98309.95;469286;1196;103558;-41
2021/04/20 22:47:42;;;;;;;53.60;30.87;;;;;;;6.96;66.86;98300.74;468433;1196;103491;-41
2021/04/20 22:57:46;;;;;;;49.87;29.20;;;;;;;7.18;67.36;98309.86;468943;1196;103511;-42
2021/04/20 23:07:50;;;;;;;42.47;26.20;;;;;;;7.34;67.37;98300.63;468447;1196;103219;-41
2021/04/20 23:17:56;;;;;;;53.85;31.05;;;;;;;7.56;67.59;98301.80;469182;1196;103216;-41
2021/04/20 23:28:08;;;;;;;59.17;32.87;;;;;;;7.63;67.50;98297.30;468508;1196;104047;-41
2021/04/20 23:38:14;;;;;;;52.17;30.90;;;;;;;7.56;67.54;98307.06;468150;1196;103514;-41
2021/04/20 23:58:41;;;;;;;41.23;22.30;;;;;;;7.82;67.79;98279.69;468861;1196;103212;-42
